createdAt,value
2023-03-16T00:00:47.838Z,4.01
2023-03-16T00:03:14.277Z,3.98
2023-03-16T00:05:40.624Z,3.95
2023-03-16T00:08:06.983Z,3.98
2023-03-16T00:10:33.382Z,3.96
2023-03-16T00:12:59.698Z,3.93
2023-03-16T00:15:26.053Z,3.99
2023-03-16T00:17:52.415Z,3.90
2023-03-16T00:20:18.835Z,3.81
2023-03-16T00:22:45.138Z,3.77
2023-03-16T00:33:23.791Z,3.73
2023-03-16T00:35:50.197Z,3.55
2023-03-16T00:38:16.493Z,3.55
2023-03-16T00:40:42.874Z,3.56
2023-03-16T00:43:09.165Z,3.47
2023-03-16T00:45:35.588Z,3.41
2023-03-16T00:48:01.827Z,3.39
2023-03-16T00:50:28.560Z,3.37
2023-03-16T00:52:54.638Z,3.36
2023-03-16T00:55:21.008Z,3.38
2023-03-16T00:57:47.404Z,3.36
2023-03-16T01:00:13.714Z,3.41
2023-03-16T01:02:40.075Z,3.44
2023-03-16T01:05:06.410Z,3.42
2023-03-16T01:07:32.775Z,3.41
2023-03-16T01:09:59.173Z,3.41
2023-03-16T01:12:25.531Z,3.33
2023-03-16T01:14:51.911Z,3.35
2023-03-16T01:17:18.236Z,3.33
2023-03-16T01:19:44.610Z,3.27
2023-03-16T01:22:10.933Z,3.27
2023-03-16T01:24:37.312Z,3.31
2023-03-16T01:27:03.674Z,3.28
2023-03-16T01:29:30.079Z,3.23
2023-03-16T01:31:56.432Z,3.19
2023-03-16T01:34:22.776Z,3.29
2023-03-16T01:36:49.091Z,3.26
2023-03-16T01:39:15.514Z,3.21
2023-03-16T01:41:41.818Z,3.16
2023-03-16T01:44:08.223Z,3.13
2023-03-16T01:46:34.645Z,3.13
2023-03-16T01:49:00.984Z,3.10
2023-03-16T01:51:27.346Z,3.14
2023-03-16T01:53:53.710Z,3.07
2023-03-16T01:56:20.083Z,3.07
2023-03-16T01:58:46.453Z,3.06
2023-03-16T02:01:12.862Z,3.07
2023-03-16T02:03:39.252Z,3.08
2023-03-16T02:06:05.620Z,3.16
2023-03-16T02:08:31.991Z,3.16
2023-03-16T02:10:58.350Z,3.08
2023-03-16T02:13:24.717Z,2.98
2023-03-16T02:15:51.144Z,2.95
2023-03-16T02:18:17.378Z,2.94
2023-03-16T02:20:43.756Z,2.90
2023-03-16T02:23:10.104Z,2.86
2023-03-16T02:25:36.426Z,2.82
2023-03-16T02:28:02.769Z,2.79
2023-03-16T02:30:29.562Z,2.73
2023-03-16T02:32:55.534Z,2.72
2023-03-16T02:35:21.880Z,2.69
2023-03-16T02:37:48.261Z,2.71
2023-03-16T02:40:14.615Z,2.60
2023-03-16T02:42:40.944Z,2.57
2023-03-16T02:45:07.316Z,2.58
2023-03-16T02:47:33.643Z,2.57
2023-03-16T02:55:28.594Z,2.43
2023-03-16T02:57:54.940Z,2.45
2023-03-16T03:00:21.248Z,2.48
2023-03-16T03:02:47.634Z,2.46
2023-03-16T03:05:13.922Z,2.47
2023-03-16T03:07:40.320Z,2.48
2023-03-16T03:10:06.641Z,2.45
2023-03-16T03:12:32.981Z,2.37
2023-03-16T03:14:59.330Z,2.38
2023-03-16T03:17:25.705Z,2.34
2023-03-16T03:19:52.041Z,2.36
2023-03-16T03:22:18.400Z,2.42
2023-03-16T03:24:44.772Z,2.45
2023-03-16T03:27:11.143Z,2.34
2023-03-16T03:29:37.505Z,2.30
2023-03-16T03:32:03.847Z,2.30
2023-03-16T03:34:30.171Z,2.29
2023-03-16T03:36:56.652Z,2.21
2023-03-16T03:39:22.926Z,2.22
2023-03-16T03:41:49.270Z,2.09
2023-03-16T03:44:15.609Z,2.06
2023-03-16T03:46:42.055Z,2.09
2023-03-16T03:49:08.285Z,2.11
2023-03-16T03:51:34.680Z,2.09
2023-03-16T03:54:01.035Z,2.13
2023-03-16T03:56:27.410Z,2.14
2023-03-16T03:58:53.786Z,2.15
2023-03-16T04:01:20.108Z,2.17
2023-03-16T04:03:46.469Z,2.10
2023-03-16T04:06:12.853Z,2.11
2023-03-16T04:08:39.208Z,2.10
2023-03-16T04:11:05.615Z,2.12
2023-03-16T04:13:31.963Z,2.14
2023-03-16T04:15:58.294Z,2.15
2023-03-16T04:18:24.620Z,2.18
2023-03-16T04:20:51.013Z,2.21
2023-03-16T04:23:17.353Z,2.27
2023-03-16T04:25:43.715Z,2.17
2023-03-16T04:28:10.079Z,2.16
2023-03-16T04:30:36.470Z,2.18
2023-03-16T04:33:02.796Z,2.22
2023-03-16T04:35:29.160Z,2.25
2023-03-16T04:37:55.551Z,2.27
2023-03-16T04:40:21.895Z,2.32
2023-03-16T04:42:48.216Z,2.38
2023-03-16T04:45:14.633Z,2.37
2023-03-16T04:47:40.986Z,2.35
2023-03-16T04:50:07.325Z,2.41
2023-03-16T04:52:33.687Z,2.37
2023-03-16T04:55:00.060Z,2.35
2023-03-16T04:57:26.380Z,2.32
2023-03-16T04:59:52.775Z,2.34
2023-03-16T05:02:19.104Z,2.34
2023-03-16T05:04:45.443Z,2.35
2023-03-16T05:07:11.779Z,2.40
2023-03-16T05:09:38.159Z,2.42
2023-03-16T05:12:04.473Z,2.42
2023-03-16T05:14:30.845Z,2.43
2023-03-16T05:16:57.187Z,2.43
2023-03-16T05:19:23.527Z,2.39
2023-03-16T05:21:49.890Z,2.41
2023-03-16T05:24:16.232Z,2.46
2023-03-16T05:26:42.597Z,2.49
2023-03-16T05:29:08.933Z,2.51
2023-03-16T05:31:35.365Z,2.46
2023-03-16T05:34:01.728Z,2.41
2023-03-16T05:36:28.020Z,2.30
2023-03-16T05:38:54.390Z,2.29
2023-03-16T05:41:20.744Z,2.28
2023-03-16T05:43:47.095Z,2.29
2023-03-16T05:46:13.454Z,2.28
2023-03-16T05:48:42.381Z,2.32
2023-03-16T05:51:08.758Z,2.37
2023-03-16T05:53:35.135Z,2.37
2023-03-16T05:56:01.498Z,2.39
2023-03-16T05:58:27.907Z,2.40
2023-03-16T06:00:54.260Z,2.41
2023-03-16T06:03:20.719Z,2.45
2023-03-16T06:05:47.059Z,2.39
2023-03-16T06:08:13.451Z,2.29
2023-03-16T06:10:39.805Z,2.23
2023-03-16T06:13:06.176Z,2.24
2023-03-16T06:15:32.804Z,2.30
2023-03-16T06:17:59.213Z,2.35
2023-03-16T06:20:25.610Z,2.29
2023-03-16T06:22:52.195Z,2.28
2023-03-16T06:25:18.556Z,2.34
2023-03-16T06:27:45.132Z,2.43
2023-03-16T06:30:11.477Z,2.53
2023-03-16T06:32:37.864Z,2.61
2023-03-16T06:35:04.150Z,2.63
2023-03-16T06:37:30.504Z,2.67
2023-03-16T06:39:56.864Z,2.73
2023-03-16T06:42:23.239Z,2.77
2023-03-16T06:44:49.604Z,2.71
2023-03-16T06:47:15.942Z,2.65
2023-03-16T06:49:42.307Z,2.66
2023-03-16T06:52:08.718Z,2.57
2023-03-16T06:54:35.078Z,2.61
2023-03-16T06:57:01.420Z,2.70
2023-03-16T06:59:27.811Z,2.63
2023-03-16T07:01:54.164Z,2.65
2023-03-16T07:04:20.582Z,2.67
2023-03-16T07:06:46.846Z,2.70
2023-03-16T07:09:13.222Z,2.69
2023-03-16T07:11:39.605Z,2.74
2023-03-16T07:14:06.027Z,2.82
2023-03-16T07:16:32.527Z,2.80
2023-03-16T07:18:58.806Z,2.77
2023-03-16T07:21:25.172Z,2.77
2023-03-16T07:23:51.572Z,2.88
2023-03-16T07:26:17.934Z,2.73
2023-03-16T07:28:44.305Z,2.83
2023-03-16T07:31:10.681Z,2.77
2023-03-16T07:33:37.101Z,2.85
2023-03-16T07:36:03.580Z,2.95
2023-03-16T07:38:29.859Z,3.04
2023-03-16T07:40:56.261Z,3.09
2023-03-16T07:43:22.636Z,3.11
2023-03-16T07:45:49.067Z,3.24
2023-03-16T07:48:15.437Z,3.24
2023-03-16T07:50:41.797Z,3.37
2023-03-16T07:53:08.182Z,3.35
2023-03-16T07:55:36.141Z,3.35
2023-03-16T07:58:02.709Z,3.37
2023-03-16T08:00:29.320Z,3.34
2023-03-16T08:02:55.510Z,3.47
2023-03-16T08:05:21.842Z,3.67
2023-03-16T08:07:48.219Z,3.89
2023-03-16T08:10:14.604Z,3.90
2023-03-16T08:12:40.980Z,3.95
2023-03-16T08:15:07.292Z,3.89
2023-03-16T08:17:33.661Z,3.81
2023-03-16T08:20:00.099Z,3.83
2023-03-16T08:22:26.462Z,4.00
2023-03-16T08:24:52.840Z,3.90
2023-03-16T08:27:19.222Z,3.76
2023-03-16T08:29:45.680Z,3.69
2023-03-16T08:32:12.070Z,3.78
2023-03-16T08:34:38.409Z,3.68
2023-03-16T08:37:04.823Z,3.72
2023-03-16T08:39:31.198Z,3.76
2023-03-16T08:41:57.592Z,3.82
2023-03-16T08:44:23.925Z,3.85
2023-03-16T08:46:50.282Z,3.86
2023-03-16T08:49:16.650Z,3.94
2023-03-16T08:51:44.884Z,3.97
2023-03-16T08:54:09.314Z,4.04
2023-03-16T08:56:35.739Z,4.13
2023-03-16T08:59:02.059Z,4.12
2023-03-16T09:01:28.585Z,4.20
2023-03-16T09:03:54.966Z,4.09
2023-03-16T09:06:21.258Z,4.08
2023-03-16T09:08:47.933Z,4.15
2023-03-16T09:11:14.238Z,4.05
2023-03-16T09:13:40.610Z,4.02
2023-03-16T09:16:07.036Z,4.02
2023-03-16T09:18:33.347Z,4.06
2023-03-16T09:21:00.189Z,4.20
2023-03-16T09:23:26.137Z,4.22
2023-03-16T09:25:52.523Z,4.23
2023-03-16T09:28:21.001Z,4.18
2023-03-16T09:30:45.377Z,4.12
2023-03-16T09:33:11.811Z,4.04
2023-03-16T09:35:38.344Z,4.08
2023-03-16T09:38:06.324Z,4.13
2023-03-16T09:40:31.089Z,4.20
2023-03-16T09:42:57.386Z,4.27
2023-03-16T09:45:23.779Z,4.19
2023-03-16T09:47:50.145Z,4.18
2023-03-16T09:50:16.624Z,4.17
2023-03-16T09:52:42.899Z,4.15
2023-03-16T09:55:09.275Z,4.14
2023-03-16T09:57:35.628Z,4.15
2023-03-16T10:00:02.187Z,4.08
2023-03-16T10:02:28.524Z,4.10
2023-03-16T10:04:54.870Z,4.03
2023-03-16T10:07:21.241Z,4.05
2023-03-16T10:09:47.546Z,4.07
2023-03-16T10:12:13.907Z,4.12
2023-03-16T10:14:40.228Z,4.11
2023-03-16T10:17:06.782Z,4.18
2023-03-16T10:19:33.178Z,4.21
2023-03-16T10:21:59.604Z,4.35
2023-03-16T10:24:26.029Z,4.44
2023-03-16T10:26:52.416Z,4.47
2023-03-16T10:29:18.805Z,4.51
2023-03-16T10:31:45.566Z,4.56
2023-03-16T10:34:12.051Z,4.59
2023-03-16T10:36:38.421Z,4.67
2023-03-16T10:39:04.819Z,4.78
2023-03-16T10:41:31.141Z,4.92
2023-03-16T10:43:57.573Z,4.94
2023-03-16T10:46:24.074Z,4.89
2023-03-16T10:48:50.420Z,5.02
2023-03-16T10:51:16.785Z,5.23
2023-03-16T10:53:43.145Z,5.29
2023-03-16T10:56:09.529Z,5.20
2023-03-16T10:58:35.872Z,5.16
2023-03-16T11:01:02.298Z,5.05
2023-03-16T11:03:28.616Z,5.18
2023-03-16T11:05:54.967Z,5.14
2023-03-16T11:08:21.314Z,5.01
2023-03-16T11:10:55.501Z,4.91
2023-03-16T11:13:14.027Z,4.88
2023-03-16T11:15:40.412Z,4.86
2023-03-16T11:18:07.268Z,5.04
2023-03-16T11:20:33.667Z,5.09
2023-03-16T11:23:00.048Z,5.04
2023-03-16T11:25:26.764Z,5.01
2023-03-16T11:27:52.809Z,5.04
2023-03-16T11:30:19.148Z,5.05
2023-03-16T11:32:45.570Z,4.99
2023-03-16T11:35:11.832Z,4.96
2023-03-16T11:37:38.216Z,4.89
2023-03-16T11:40:04.511Z,4.93
2023-03-16T11:42:31.135Z,4.97
2023-03-16T11:44:57.469Z,4.99
2023-03-16T11:47:23.805Z,4.92
2023-03-16T11:49:50.167Z,4.85
2023-03-16T11:52:16.571Z,4.93
2023-03-16T11:54:42.895Z,4.93
2023-03-16T11:57:09.275Z,4.90
2023-03-16T11:59:35.650Z,4.95
2023-03-16T12:02:02.083Z,4.88
2023-03-16T12:04:28.474Z,4.85
2023-03-16T12:06:54.811Z,4.84
2023-03-16T12:09:21.241Z,4.94
2023-03-16T12:11:47.666Z,4.99
2023-03-16T12:14:13.979Z,5.00
2023-03-16T12:16:49.191Z,4.92
2023-03-16T12:19:06.735Z,4.79
2023-03-16T12:21:33.069Z,4.69
2023-03-16T12:23:59.441Z,4.71
2023-03-16T12:26:26.048Z,4.70
2023-03-16T12:28:52.383Z,4.68
2023-03-16T12:31:18.787Z,4.61
2023-03-16T12:33:45.081Z,4.59
2023-03-16T12:36:11.522Z,4.43
2023-03-16T12:38:38.173Z,4.51
2023-03-16T12:41:04.582Z,4.51
2023-03-16T12:43:31.026Z,4.57
2023-03-16T12:45:57.364Z,4.50
2023-03-16T12:48:23.976Z,4.46
2023-03-16T12:50:50.366Z,4.38
2023-03-16T12:53:16.773Z,4.30
2023-03-16T12:55:43.191Z,4.28
2023-03-16T12:58:09.524Z,4.35
2023-03-16T13:00:35.938Z,4.27
2023-03-16T13:03:02.250Z,4.12
2023-03-16T13:05:28.922Z,3.96
2023-03-16T13:07:55.054Z,3.93
2023-03-16T13:10:21.425Z,3.87
2023-03-16T13:12:47.962Z,3.93
2023-03-16T13:15:14.346Z,3.95
2023-03-16T13:17:40.696Z,3.91
2023-03-16T13:20:07.963Z,3.89
2023-03-16T13:22:33.417Z,3.95
2023-03-16T13:24:59.791Z,3.93
2023-03-16T13:27:26.098Z,3.87
2023-03-16T13:29:54.880Z,3.97
2023-03-16T13:32:21.477Z,3.97
2023-03-16T13:34:47.942Z,4.01
2023-03-16T13:37:14.316Z,3.92
2023-03-16T13:39:40.744Z,3.97
2023-03-16T13:42:07.075Z,4.16
2023-03-16T13:44:34.232Z,4.18
2023-03-16T13:47:00.558Z,4.21
2023-03-16T13:49:26.952Z,4.22
2023-03-16T13:51:55.417Z,4.29
2023-03-16T13:54:21.800Z,4.29
2023-03-16T13:56:48.156Z,4.42
2023-03-16T13:59:14.501Z,4.33
2023-03-16T14:01:40.881Z,4.30
2023-03-16T14:04:07.220Z,4.30
2023-03-16T14:06:33.576Z,4.39
2023-03-16T14:09:00.027Z,4.28
2023-03-16T14:11:26.528Z,4.26
2023-03-16T14:13:52.899Z,4.26
2023-03-16T14:16:19.288Z,4.15
2023-03-16T14:18:45.645Z,4.14
2023-03-16T14:21:12.041Z,4.17
2023-03-16T14:23:38.482Z,4.20
2023-03-16T14:26:04.856Z,4.15
2023-03-16T14:28:32.292Z,4.07
2023-03-16T14:30:57.611Z,4.00
2023-03-16T14:33:23.926Z,3.99
2023-03-16T14:35:53.596Z,3.99
2023-03-16T14:38:16.646Z,3.99
2023-03-16T14:40:43.046Z,3.90
2023-03-16T14:43:09.461Z,3.88
2023-03-16T14:45:35.806Z,3.93
2023-03-16T14:48:02.182Z,3.93
2023-03-16T14:50:28.553Z,3.84
2023-03-16T14:52:55.008Z,3.81
2023-03-16T14:55:21.346Z,3.81
2023-03-16T14:57:47.682Z,3.74
2023-03-16T15:00:14.078Z,3.74
2023-03-16T15:02:40.432Z,3.72
2023-03-16T15:05:06.819Z,3.72
2023-03-16T15:07:33.199Z,3.62
2023-03-16T15:09:59.928Z,3.64
2023-03-16T15:12:26.300Z,3.63
2023-03-16T15:14:52.623Z,3.60
2023-03-16T15:17:18.977Z,3.63
2023-03-16T15:19:45.332Z,3.61
2023-03-16T15:22:11.683Z,3.64
2023-03-16T15:24:38.077Z,3.63
2023-03-16T15:27:04.489Z,3.59
2023-03-16T15:29:30.860Z,3.62
2023-03-16T15:31:57.300Z,3.65
2023-03-16T15:34:23.635Z,3.67
2023-03-16T15:36:49.987Z,3.67
2023-03-16T15:39:16.374Z,3.72
2023-03-16T15:41:47.697Z,3.63
2023-03-16T15:44:09.124Z,3.67
2023-03-16T15:46:35.501Z,3.61
2023-03-16T15:49:01.867Z,3.53
2023-03-16T15:51:28.261Z,3.51
2023-03-16T15:53:54.593Z,3.46
2023-03-16T15:56:21.030Z,3.42
2023-03-16T15:58:47.399Z,3.44
2023-03-16T16:01:13.766Z,3.37
2023-03-16T16:03:40.096Z,3.37
2023-03-16T16:06:06.499Z,3.33
2023-03-16T16:08:32.844Z,3.29
2023-03-16T16:10:59.238Z,3.27
2023-03-16T16:13:34.104Z,3.14
2023-03-16T16:15:53.670Z,3.03
2023-03-16T16:18:21.889Z,2.90
2023-03-16T16:20:47.233Z,2.93
2023-03-16T16:23:13.618Z,2.95
2023-03-16T16:25:40.033Z,2.90
2023-03-16T16:28:06.379Z,2.84
2023-03-16T16:30:32.856Z,2.88
2023-03-16T16:32:59.346Z,2.79
2023-03-16T16:35:25.611Z,2.76
2023-03-16T16:37:51.927Z,2.82
2023-03-16T16:40:18.412Z,2.87
2023-03-16T16:42:44.772Z,2.92
2023-03-16T16:45:11.161Z,2.94
2023-03-16T16:47:37.515Z,2.99
2023-03-16T16:50:03.972Z,2.97
2023-03-16T16:52:30.330Z,2.97
2023-03-16T16:54:56.671Z,3.00
2023-03-16T16:57:23.066Z,3.03
2023-03-16T16:59:49.414Z,3.06
2023-03-16T17:02:15.780Z,3.07
2023-03-16T17:04:42.704Z,3.09
2023-03-16T17:07:09.162Z,3.10
2023-03-16T17:09:35.550Z,3.12
2023-03-16T17:12:01.881Z,3.15
2023-03-16T17:14:30.440Z,3.20
2023-03-16T17:16:56.841Z,3.27
2023-03-16T17:19:23.164Z,3.25
2023-03-16T17:21:49.536Z,3.24
2023-03-16T17:24:15.939Z,3.25
2023-03-16T17:26:42.287Z,3.29
2023-03-16T17:29:09.039Z,3.43
2023-03-16T17:31:35.434Z,3.41
2023-03-16T17:34:01.793Z,3.33
2023-03-16T17:36:28.177Z,3.27
2023-03-16T17:38:54.581Z,3.29
2023-03-16T17:41:20.929Z,3.26
2023-03-16T17:43:47.260Z,3.28
2023-03-16T17:46:17.159Z,3.30
2023-03-16T17:48:40.040Z,3.36
2023-03-16T17:51:06.469Z,3.33
2023-03-16T17:53:32.880Z,3.34
2023-03-16T17:55:59.271Z,3.31
2023-03-16T17:58:25.594Z,3.30
2023-03-16T18:00:52.058Z,3.29
2023-03-16T18:03:18.424Z,3.27
2023-03-16T18:05:44.777Z,3.26
2023-03-16T18:08:11.081Z,3.25
2023-03-16T18:10:37.476Z,3.22
2023-03-16T18:13:03.938Z,3.42
2023-03-16T18:15:30.304Z,3.37
2023-03-16T18:17:56.639Z,3.29
2023-03-16T18:20:23.103Z,3.25
2023-03-16T18:22:49.436Z,3.15
2023-03-16T18:25:15.840Z,3.14
2023-03-16T18:27:42.242Z,3.11
2023-03-16T18:30:08.610Z,3.09
2023-03-16T18:32:34.941Z,3.00
2023-03-16T18:35:03.537Z,2.97
2023-03-16T18:37:27.685Z,3.00
2023-03-16T18:39:54.038Z,2.97
2023-03-16T18:42:20.421Z,2.91
2023-03-16T18:44:46.829Z,2.89
2023-03-16T18:47:13.152Z,2.83
2023-03-16T18:49:39.801Z,2.82
2023-03-16T18:52:06.152Z,2.83
2023-03-16T18:54:32.496Z,2.79
2023-03-16T18:56:59.170Z,2.78
2023-03-16T18:59:25.530Z,2.78
2023-03-16T19:01:51.909Z,2.83
2023-03-16T19:04:18.378Z,2.83
2023-03-16T19:06:44.805Z,2.80
2023-03-16T19:09:11.213Z,2.74
2023-03-16T19:11:37.558Z,2.71
2023-03-16T19:14:04.312Z,2.66
2023-03-16T19:16:30.709Z,2.70
2023-03-16T19:18:56.961Z,2.67
2023-03-16T19:21:23.336Z,2.66
2023-03-16T19:23:49.704Z,2.66
2023-03-16T19:26:16.103Z,2.70
2023-03-16T19:28:42.505Z,2.69
2023-03-16T19:31:08.865Z,2.69
2023-03-16T19:33:35.280Z,2.68
2023-03-16T19:36:01.711Z,2.64
2023-03-16T19:38:28.090Z,2.69
2023-03-16T19:40:54.432Z,2.69
2023-03-16T19:43:20.809Z,2.73
2023-03-16T19:45:47.270Z,2.74
2023-03-16T19:48:13.620Z,2.75
2023-03-16T19:50:40.106Z,2.76
2023-03-16T19:53:06.498Z,2.79
2023-03-16T19:55:32.893Z,2.77
2023-03-16T19:57:59.348Z,2.72
2023-03-16T20:00:25.810Z,2.72
2023-03-16T20:02:52.295Z,2.68
2023-03-16T20:05:18.788Z,2.62
2023-03-16T20:07:45.437Z,2.56
2023-03-16T20:10:11.863Z,2.63
2023-03-16T20:12:38.138Z,2.62
2023-03-16T20:15:04.559Z,2.60
2023-03-16T20:17:30.966Z,2.64
2023-03-16T20:19:57.360Z,2.59
2023-03-16T20:22:23.850Z,2.52
2023-03-16T20:24:50.216Z,2.49
2023-03-16T20:27:16.610Z,2.41
2023-03-16T20:29:42.903Z,2.43
2023-03-16T20:32:09.570Z,2.46
2023-03-16T20:34:35.986Z,2.52
2023-03-16T20:37:04.696Z,2.58
2023-03-16T20:39:31.135Z,2.58
2023-03-16T20:41:57.482Z,2.56
2023-03-16T20:44:23.890Z,2.66
2023-03-16T20:46:50.271Z,2.59
2023-03-16T20:49:16.681Z,2.55
2023-03-16T20:51:43.034Z,2.54
2023-03-16T20:54:09.426Z,2.67
2023-03-16T20:56:35.773Z,2.72
2023-03-16T20:59:02.148Z,2.66
2023-03-16T21:01:28.550Z,2.58
2023-03-16T21:03:54.867Z,2.54
2023-03-16T21:06:21.349Z,2.59
2023-03-16T21:08:47.687Z,2.60
2023-03-16T21:11:14.042Z,2.60
2023-03-16T21:13:40.365Z,2.60
2023-03-16T21:16:06.788Z,2.63
2023-03-16T21:18:33.145Z,2.64
2023-03-16T21:20:59.467Z,2.63
2023-03-16T21:23:25.853Z,2.70
2023-03-16T21:25:52.239Z,2.77
2023-03-16T21:28:18.606Z,2.77
2023-03-16T21:30:44.996Z,2.76
2023-03-16T21:33:11.316Z,2.80
2023-03-16T21:35:37.726Z,2.84
2023-03-16T21:38:04.075Z,2.87
2023-03-16T21:40:30.781Z,2.74
2023-03-16T21:42:56.804Z,2.71
2023-03-16T21:45:23.191Z,2.81
2023-03-16T21:47:50.533Z,2.81
2023-03-16T21:50:16.909Z,2.78
2023-03-16T21:52:43.258Z,2.73
2023-03-16T21:55:11.079Z,2.71
2023-03-16T21:57:35.928Z,2.74
2023-03-16T22:00:02.363Z,2.74
2023-03-16T22:02:28.757Z,2.71
2023-03-16T22:04:55.046Z,2.72
2023-03-16T22:07:21.419Z,2.69
2023-03-16T22:09:47.824Z,2.66
2023-03-16T22:12:14.191Z,2.68
2023-03-16T22:14:40.529Z,2.65
2023-03-16T22:17:06.927Z,2.66
2023-03-16T22:19:33.282Z,2.74
2023-03-16T22:21:59.674Z,2.73
2023-03-16T22:24:26.082Z,2.71
2023-03-16T22:26:52.424Z,2.69
2023-03-16T22:29:18.798Z,2.67
2023-03-16T22:31:45.189Z,2.65
2023-03-16T22:34:11.472Z,2.67
2023-03-16T22:36:38.882Z,2.68
2023-03-16T22:39:05.245Z,2.68
2023-03-16T22:41:31.569Z,2.75
2023-03-16T22:43:58.012Z,2.72
2023-03-16T22:46:24.720Z,2.65
2023-03-16T22:48:51.013Z,2.67
2023-03-16T22:51:17.376Z,2.70
2023-03-16T22:53:44.045Z,2.71
2023-03-16T22:56:10.508Z,2.73
2023-03-16T22:58:36.838Z,2.70
2023-03-16T23:01:03.254Z,2.66
2023-03-16T23:03:29.611Z,2.66
2023-03-16T23:05:55.970Z,2.68
2023-03-16T23:08:22.371Z,2.63
2023-03-16T23:10:48.742Z,2.69
2023-03-16T23:13:15.097Z,2.71
2023-03-16T23:15:41.485Z,2.72
2023-03-16T23:18:07.880Z,2.68
2023-03-16T23:20:34.258Z,2.62
2023-03-16T23:23:00.592Z,2.58
2023-03-16T23:25:26.959Z,2.52
2023-03-16T23:27:53.340Z,2.51
2023-03-16T23:30:19.697Z,2.51
2023-03-16T23:32:46.177Z,2.51
2023-03-16T23:35:13.468Z,2.51
2023-03-16T23:37:39.870Z,2.46
2023-03-16T23:40:06.178Z,2.56
2023-03-16T23:42:32.567Z,2.56
2023-03-16T23:44:58.985Z,2.56
2023-03-16T23:47:25.383Z,2.54
2023-03-16T23:49:51.698Z,2.56
2023-03-16T23:52:18.065Z,2.57
2023-03-16T23:54:44.396Z,2.59
2023-03-16T23:57:10.758Z,2.51
2023-03-16T23:59:37.131Z,2.45
